sensor_id;sensor_type;location;lat;lon;timestamp;P1;durP1;ratioP1;P2;durP2;ratioP2
61525;SDS011;47394;41.366;-8.738;2022-09-01T00:01:19;49.80;;;18.25;;
61525;SDS011;47394;41.366;-8.738;2022-09-01T00:03:26;91.03;;;21.88;;
61525;SDS011;47394;41.366;-8.738;2022-09-01T00:05:26;64.60;;;22.13;;
61525;SDS011;47394;41.366;-8.738;2022-09-01T00:07:28;57.00;;;21.58;;
61525;SDS011;47394;41.366;-8.738;2022-09-01T00:09:29;95.28;;;24.30;;
61525;SDS011;47394;41.366;-8.738;2022-09-01T00:11:30;46.53;;;20.90;;
61525;SDS011;47394;41.366;-8.738;2022-09-01T00:13:31;91.65;;;19.05;;
61525;SDS011;47394;41.366;-8.738;2022-09-01T00:15:33;70.38;;;17.60;;
61525;SDS011;47394;41.366;-8.738;2022-09-01T00:17:34;103.82;;;22.52;;
61525;SDS011;47394;41.366;-8.738;2022-09-01T00:19:35;71.55;;;19.02;;
61525;SDS011;47394;41.366;-8.738;2022-09-01T00:21:38;55.20;;;17.92;;
61525;SDS011;47394;41.366;-8.738;2022-09-01T00:23:41;43.25;;;16.30;;
61525;SDS011;47394;41.366;-8.738;2022-09-01T00:25:42;76.72;;;17.02;;
61525;SDS011;47394;41.366;-8.738;2022-09-01T00:27:43;89.88;;;17.15;;
61525;SDS011;47394;41.366;-8.738;2022-09-01T00:29:44;70.22;;;16.20;;
61525;SDS011;47394;41.366;-8.738;2022-09-01T00:31:45;61.78;;;15.70;;
61525;SDS011;47394;41.366;-8.738;2022-09-01T00:33:46;58.33;;;18.35;;
61525;SDS011;47394;41.366;-8.738;2022-09-01T00:35:48;55.30;;;19.52;;
61525;SDS011;47394;41.366;-8.738;2022-09-01T00:37:49;35.33;;;17.45;;
61525;SDS011;47394;41.366;-8.738;2022-09-01T00:39:50;79.03;;;19.23;;
61525;SDS011;47394;41.366;-8.738;2022-09-01T00:41:50;28.00;;;17.30;;
61525;SDS011;47394;41.366;-8.738;2022-09-01T00:43:55;112.55;;;21.38;;
61525;SDS011;47394;41.366;-8.738;2022-09-01T00:45:58;106.55;;;20.00;;
61525;SDS011;47394;41.366;-8.738;2022-09-01T00:47:59;54.88;;;17.45;;
61525;SDS011;47394;41.366;-8.738;2022-09-01T00:50:00;108.10;;;19.38;;
61525;SDS011;47394;41.366;-8.738;2022-09-01T00:52:06;74.13;;;17.77;;
61525;SDS011;47394;41.366;-8.738;2022-09-01T00:54:11;56.38;;;17.70;;
61525;SDS011;47394;41.366;-8.738;2022-09-01T00:56:18;65.85;;;18.45;;
61525;SDS011;47394;41.366;-8.738;2022-09-01T00:58:18;44.85;;;19.77;;
61525;SDS011;47394;41.366;-8.738;2022-09-01T01:00:24;32.08;;;18.55;;
61525;SDS011;47394;41.366;-8.738;2022-09-01T01:02:26;38.20;;;18.85;;
61525;SDS011;47394;41.366;-8.738;2022-09-01T01:04:27;65.50;;;21.95;;
61525;SDS011;47394;41.366;-8.738;2022-09-01T01:06:29;51.70;;;21.52;;
61525;SDS011;47394;41.366;-8.738;2022-09-01T01:08:32;34.10;;;19.55;;
61525;SDS011;47394;41.366;-8.738;2022-09-01T01:10:36;36.35;;;19.73;;
61525;SDS011;47394;41.366;-8.738;2022-09-01T01:12:38;47.80;;;20.35;;
61525;SDS011;47394;41.366;-8.738;2022-09-01T01:14:39;62.65;;;21.50;;
61525;SDS011;47394;41.366;-8.738;2022-09-01T01:16:45;46.47;;;22.45;;
61525;SDS011;47394;41.366;-8.738;2022-09-01T01:18:47;60.38;;;19.65;;
61525;SDS011;47394;41.366;-8.738;2022-09-01T01:20:55;37.30;;;22.25;;
61525;SDS011;47394;41.366;-8.738;2022-09-01T01:25:31;31.58;;;20.58;;
61525;SDS011;47394;41.366;-8.738;2022-09-01T01:27:39;50.40;;;19.27;;
61525;SDS011;47394;41.366;-8.738;2022-09-01T01:29:41;27.85;;;18.92;;
61525;SDS011;47394;41.366;-8.738;2022-09-01T01:31:42;29.35;;;20.20;;
61525;SDS011;47394;41.366;-8.738;2022-09-01T01:33:44;33.97;;;19.52;;
61525;SDS011;47394;41.366;-8.738;2022-09-01T01:35:48;30.95;;;19.85;;
61525;SDS011;47394;41.366;-8.738;2022-09-01T01:37:50;29.42;;;19.50;;
61525;SDS011;47394;41.366;-8.738;2022-09-01T01:39:51;37.20;;;19.73;;
61525;SDS011;47394;41.366;-8.738;2022-09-01T01:41:53;28.27;;;19.17;;
61525;SDS011;47394;41.366;-8.738;2022-09-01T01:43:58;63.88;;;20.08;;
61525;SDS011;47394;41.366;-8.738;2022-09-01T01:46:04;220.40;;;21.23;;
61525;SDS011;47394;41.366;-8.738;2022-09-01T01:48:11;110.10;;;18.20;;
61525;SDS011;47394;41.366;-8.738;2022-09-01T01:50:13;162.88;;;19.00;;
61525;SDS011;47394;41.366;-8.738;2022-09-01T01:52:16;127.18;;;16.23;;
61525;SDS011;47394;41.366;-8.738;2022-09-01T01:54:21;266.77;;;21.27;;
61525;SDS011;47394;41.366;-8.738;2022-09-01T01:56:22;199.07;;;18.65;;
61525;SDS011;47394;41.366;-8.738;2022-09-01T01:58:24;145.75;;;15.88;;
61525;SDS011;47394;41.366;-8.738;2022-09-01T02:00:29;199.57;;;18.35;;
61525;SDS011;47394;41.366;-8.738;2022-09-01T02:02:34;165.13;;;16.70;;
61525;SDS011;47394;41.366;-8.738;2022-09-01T02:04:37;113.72;;;15.93;;
61525;SDS011;47394;41.366;-8.738;2022-09-01T02:06:43;161.63;;;16.50;;
61525;SDS011;47394;41.366;-8.738;2022-09-01T02:08:48;44.03;;;13.45;;
61525;SDS011;47394;41.366;-8.738;2022-09-01T02:12:53;70.93;;;17.15;;
61525;SDS011;47394;41.366;-8.738;2022-09-01T02:14:54;126.13;;;16.95;;
61525;SDS011;47394;41.366;-8.738;2022-09-01T02:16:55;119.80;;;15.57;;
61525;SDS011;47394;41.366;-8.738;2022-09-01T02:18:56;101.70;;;15.43;;
61525;SDS011;47394;41.366;-8.738;2022-09-01T02:20:57;45.95;;;15.15;;
61525;SDS011;47394;41.366;-8.738;2022-09-01T02:22:59;79.30;;;17.77;;
61525;SDS011;47394;41.366;-8.738;2022-09-01T02:25:08;239.15;;;22.45;;
61525;SDS011;47394;41.366;-8.738;2022-09-01T02:27:10;29.17;;;16.60;;
61525;SDS011;47394;41.366;-8.738;2022-09-01T02:29:13;100.15;;;21.60;;
61525;SDS011;47394;41.366;-8.738;2022-09-01T02:31:20;82.05;;;18.40;;
61525;SDS011;47394;41.366;-8.738;2022-09-01T02:33:22;73.50;;;19.67;;
61525;SDS011;47394;41.366;-8.738;2022-09-01T02:35:23;103.18;;;18.90;;
61525;SDS011;47394;41.366;-8.738;2022-09-01T02:37:28;93.85;;;17.70;;
61525;SDS011;47394;41.366;-8.738;2022-09-01T02:39:29;49.50;;;19.35;;
61525;SDS011;47394;41.366;-8.738;2022-09-01T02:41:34;28.83;;;17.67;;
61525;SDS011;47394;41.366;-8.738;2022-09-01T02:43:35;51.90;;;20.25;;
61525;SDS011;47394;41.366;-8.738;2022-09-01T02:45:37;37.13;;;20.40;;
61525;SDS011;47394;41.366;-8.738;2022-09-01T02:47:38;33.70;;;21.92;;
61525;SDS011;47394;41.366;-8.738;2022-09-01T02:49:41;32.33;;;20.98;;
61525;SDS011;47394;41.366;-8.738;2022-09-01T02:51:43;40.72;;;21.13;;
61525;SDS011;47394;41.366;-8.738;2022-09-01T02:53:45;77.55;;;25.33;;
61525;SDS011;47394;41.366;-8.738;2022-09-01T02:55:51;62.67;;;26.77;;
61525;SDS011;47394;41.366;-8.738;2022-09-01T02:57:52;85.53;;;26.13;;
61525;SDS011;47394;41.366;-8.738;2022-09-01T02:59:56;67.93;;;26.88;;
61525;SDS011;47394;41.366;-8.738;2022-09-01T03:02:00;77.07;;;27.55;;
61525;SDS011;47394;41.366;-8.738;2022-09-01T03:04:01;84.93;;;29.67;;
61525;SDS011;47394;41.366;-8.738;2022-09-01T03:06:10;51.47;;;28.35;;
61525;SDS011;47394;41.366;-8.738;2022-09-01T03:08:12;108.63;;;34.20;;
61525;SDS011;47394;41.366;-8.738;2022-09-01T03:10:15;72.15;;;29.83;;
61525;SDS011;47394;41.366;-8.738;2022-09-01T03:12:17;81.75;;;29.00;;
61525;SDS011;47394;41.366;-8.738;2022-09-01T03:14:19;72.03;;;31.90;;
61525;SDS011;47394;41.366;-8.738;2022-09-01T03:16:21;109.60;;;30.83;;
61525;SDS011;47394;41.366;-8.738;2022-09-01T03:18:22;73.95;;;32.08;;
61525;SDS011;47394;41.366;-8.738;2022-09-01T03:20:23;71.90;;;29.17;;
61525;SDS011;47394;41.366;-8.738;2022-09-01T03:22:24;67.90;;;29.75;;
61525;SDS011;47394;41.366;-8.738;2022-09-01T03:24:26;71.40;;;27.75;;
61525;SDS011;47394;41.366;-8.738;2022-09-01T03:26:27;115.07;;;31.70;;
61525;SDS011;47394;41.366;-8.738;2022-09-01T03:28:28;124.60;;;32.65;;
61525;SDS011;47394;41.366;-8.738;2022-09-01T03:30:29;82.93;;;30.73;;
61525;SDS011;47394;41.366;-8.738;2022-09-01T03:32:32;83.30;;;32.35;;
61525;SDS011;47394;41.366;-8.738;2022-09-01T03:34:32;94.50;;;32.40;;
61525;SDS011;47394;41.366;-8.738;2022-09-01T03:36:36;65.95;;;30.75;;
61525;SDS011;47394;41.366;-8.738;2022-09-01T03:38:36;68.18;;;32.50;;
61525;SDS011;47394;41.366;-8.738;2022-09-01T03:40:39;57.88;;;34.05;;
61525;SDS011;47394;41.366;-8.738;2022-09-01T03:42:40;58.90;;;33.63;;
61525;SDS011;47394;41.366;-8.738;2022-09-01T03:44:43;69.57;;;36.83;;
61525;SDS011;47394;41.366;-8.738;2022-09-01T03:46:44;63.40;;;36.78;;
61525;SDS011;47394;41.366;-8.738;2022-09-01T03:48:50;63.83;;;35.08;;
61525;SDS011;47394;41.366;-8.738;2022-09-01T03:50:54;59.65;;;35.88;;
61525;SDS011;47394;41.366;-8.738;2022-09-01T03:52:58;65.97;;;37.00;;
61525;SDS011;47394;41.366;-8.738;2022-09-01T03:55:01;55.83;;;35.83;;
61525;SDS011;47394;41.366;-8.738;2022-09-01T03:57:02;65.95;;;39.22;;
61525;SDS011;47394;41.366;-8.738;2022-09-01T03:59:06;59.92;;;37.13;;
61525;SDS011;47394;41.366;-8.738;2022-09-01T04:01:07;57.40;;;37.10;;
61525;SDS011;47394;41.366;-8.738;2022-09-01T04:03:09;58.85;;;37.88;;
61525;SDS011;47394;41.366;-8.738;2022-09-01T04:05:12;55.28;;;36.92;;
61525;SDS011;47394;41.366;-8.738;2022-09-01T04:07:13;60.88;;;38.40;;
61525;SDS011;47394;41.366;-8.738;2022-09-01T04:09:14;57.45;;;38.38;;
61525;SDS011;47394;41.366;-8.738;2022-09-01T04:13:25;57.88;;;38.65;;
61525;SDS011;47394;41.366;-8.738;2022-09-01T04:15:30;49.40;;;33.78;;
61525;SDS011;47394;41.366;-8.738;2022-09-01T04:17:33;54.95;;;36.97;;
61525;SDS011;47394;41.366;-8.738;2022-09-01T04:19:53;54.00;;;37.50;;
61525;SDS011;47394;41.366;-8.738;2022-09-01T04:21:54;50.80;;;36.40;;
61525;SDS011;47394;41.366;-8.738;2022-09-01T04:24:00;45.35;;;34.30;;
61525;SDS011;47394;41.366;-8.738;2022-09-01T04:26:08;57.83;;;37.08;;
61525;SDS011;47394;41.366;-8.738;2022-09-01T04:28:12;49.83;;;35.55;;
61525;SDS011;47394;41.366;-8.738;2022-09-01T04:30:22;51.50;;;35.75;;
61525;SDS011;47394;41.366;-8.738;2022-09-01T04:32:28;52.97;;;35.80;;
61525;SDS011;47394;41.366;-8.738;2022-09-01T04:34:33;42.30;;;31.13;;
61525;SDS011;47394;41.366;-8.738;2022-09-01T04:36:40;40.90;;;31.67;;
61525;SDS011;47394;41.366;-8.738;2022-09-01T04:38:43;40.45;;;30.98;;
61525;SDS011;47394;41.366;-8.738;2022-09-01T04:40:43;39.80;;;28.15;;
61525;SDS011;47394;41.366;-8.738;2022-09-01T04:42:45;39.40;;;28.27;;
61525;SDS011;47394;41.366;-8.738;2022-09-01T04:44:46;35.58;;;26.88;;
61525;SDS011;47394;41.366;-8.738;2022-09-01T04:46:48;32.03;;;25.38;;
61525;SDS011;47394;41.366;-8.738;2022-09-01T04:50:52;33.75;;;26.83;;
61525;SDS011;47394;41.366;-8.738;2022-09-01T04:53:00;34.97;;;28.08;;
61525;SDS011;47394;41.366;-8.738;2022-09-01T04:55:05;35.35;;;25.90;;
61525;SDS011;47394;41.366;-8.738;2022-09-01T04:57:08;30.83;;;25.45;;
61525;SDS011;47394;41.366;-8.738;2022-09-01T04:59:11;34.08;;;25.98;;
61525;SDS011;47394;41.366;-8.738;2022-09-01T05:01:23;28.70;;;25.58;;
61525;SDS011;47394;41.366;-8.738;2022-09-01T05:03:25;33.70;;;25.55;;
61525;SDS011;47394;41.366;-8.738;2022-09-01T05:05:36;34.92;;;26.13;;
61525;SDS011;47394;41.366;-8.738;2022-09-01T05:07:38;34.63;;;25.17;;
61525;SDS011;47394;41.366;-8.738;2022-09-01T05:09:39;28.88;;;23.33;;
61525;SDS011;47394;41.366;-8.738;2022-09-01T05:11:59;33.08;;;24.42;;
61525;SDS011;47394;41.366;-8.738;2022-09-01T05:14:12;32.78;;;25.90;;
61525;SDS011;47394;41.366;-8.738;2022-09-01T05:16:14;29.15;;;24.65;;
61525;SDS011;47394;41.366;-8.738;2022-09-01T05:18:20;36.40;;;25.90;;
61525;SDS011;47394;41.366;-8.738;2022-09-01T05:20:23;30.55;;;25.10;;
61525;SDS011;47394;41.366;-8.738;2022-09-01T05:22:24;26.15;;;21.90;;
61525;SDS011;47394;41.366;-8.738;2022-09-01T05:24:30;32.90;;;24.27;;
61525;SDS011;47394;41.366;-8.738;2022-09-01T05:26:35;29.80;;;24.40;;
61525;SDS011;47394;41.366;-8.738;2022-09-01T05:28:40;30.63;;;23.42;;
61525;SDS011;47394;41.366;-8.738;2022-09-01T05:30:40;38.95;;;25.85;;
61525;SDS011;47394;41.366;-8.738;2022-09-01T05:32:43;29.13;;;24.25;;
61525;SDS011;47394;41.366;-8.738;2022-09-01T05:34:46;36.50;;;23.88;;
61525;SDS011;47394;41.366;-8.738;2022-09-01T05:36:49;28.23;;;22.63;;
61525;SDS011;47394;41.366;-8.738;2022-09-01T05:38:51;29.63;;;23.25;;
61525;SDS011;47394;41.366;-8.738;2022-09-01T05:40:56;27.52;;;22.80;;
61525;SDS011;47394;41.366;-8.738;2022-09-01T05:43:01;32.88;;;23.05;;
61525;SDS011;47394;41.366;-8.738;2022-09-01T05:45:03;27.08;;;20.83;;
61525;SDS011;47394;41.366;-8.738;2022-09-01T05:47:04;28.38;;;22.02;;
61525;SDS011;47394;41.366;-8.738;2022-09-01T05:49:08;30.35;;;23.83;;
61525;SDS011;47394;41.366;-8.738;2022-09-01T05:51:13;38.10;;;27.20;;
61525;SDS011;47394;41.366;-8.738;2022-09-01T05:53:17;36.20;;;28.10;;
61525;SDS011;47394;41.366;-8.738;2022-09-01T05:55:19;40.50;;;27.83;;
61525;SDS011;47394;41.366;-8.738;2022-09-01T05:57:21;37.75;;;26.70;;
61525;SDS011;47394;41.366;-8.738;2022-09-01T05:59:23;38.15;;;26.13;;
61525;SDS011;47394;41.366;-8.738;2022-09-01T06:01:26;32.50;;;25.80;;
61525;SDS011;47394;41.366;-8.738;2022-09-01T06:03:28;32.90;;;24.67;;
61525;SDS011;47394;41.366;-8.738;2022-09-01T06:05:32;31.67;;;23.73;;
61525;SDS011;47394;41.366;-8.738;2022-09-01T06:07:35;31.83;;;24.00;;
61525;SDS011;47394;41.366;-8.738;2022-09-01T06:09:41;38.00;;;27.40;;
61525;SDS011;47394;41.366;-8.738;2022-09-01T06:11:45;44.28;;;26.85;;
61525;SDS011;47394;41.366;-8.738;2022-09-01T06:13:47;32.47;;;25.93;;
61525;SDS011;47394;41.366;-8.738;2022-09-01T06:15:52;33.15;;;24.75;;
61525;SDS011;47394;41.366;-8.738;2022-09-01T06:17:54;41.22;;;26.63;;
61525;SDS011;47394;41.366;-8.738;2022-09-01T06:19:55;32.97;;;26.10;;
61525;SDS011;47394;41.366;-8.738;2022-09-01T06:21:57;36.80;;;24.70;;
61525;SDS011;47394;41.366;-8.738;2022-09-01T06:23:57;35.22;;;22.70;;
61525;SDS011;47394;41.366;-8.738;2022-09-01T06:25:59;34.65;;;22.88;;
61525;SDS011;47394;41.366;-8.738;2022-09-01T06:28:03;31.80;;;23.65;;
61525;SDS011;47394;41.366;-8.738;2022-09-01T06:30:05;32.13;;;23.02;;
61525;SDS011;47394;41.366;-8.738;2022-09-01T06:32:18;31.67;;;22.10;;
61525;SDS011;47394;41.366;-8.738;2022-09-01T06:34:20;26.83;;;21.37;;
61525;SDS011;47394;41.366;-8.738;2022-09-01T06:36:21;35.80;;;22.33;;
61525;SDS011;47394;41.366;-8.738;2022-09-01T06:38:23;38.50;;;23.77;;
61525;SDS011;47394;41.366;-8.738;2022-09-01T06:40:27;35.28;;;25.90;;
61525;SDS011;47394;41.366;-8.738;2022-09-01T06:42:28;33.22;;;24.13;;
61525;SDS011;47394;41.366;-8.738;2022-09-01T06:44:33;36.40;;;25.67;;
61525;SDS011;47394;41.366;-8.738;2022-09-01T06:46:39;34.95;;;25.98;;
61525;SDS011;47394;41.366;-8.738;2022-09-01T06:48:40;31.30;;;26.83;;
61525;SDS011;47394;41.366;-8.738;2022-09-01T06:50:45;37.50;;;25.08;;
61525;SDS011;47394;41.366;-8.738;2022-09-01T06:52:47;42.33;;;25.00;;
61525;SDS011;47394;41.366;-8.738;2022-09-01T06:55:00;34.10;;;24.65;;
61525;SDS011;47394;41.366;-8.738;2022-09-01T06:57:02;32.63;;;25.10;;
61525;SDS011;47394;41.366;-8.738;2022-09-01T06:59:03;29.63;;;23.63;;
61525;SDS011;47394;41.366;-8.738;2022-09-01T07:03:09;33.75;;;20.80;;
61525;SDS011;47394;41.366;-8.738;2022-09-01T07:05:29;26.25;;;20.52;;
61525;SDS011;47394;41.366;-8.738;2022-09-01T07:07:33;29.48;;;21.50;;
61525;SDS011;47394;41.366;-8.738;2022-09-01T07:10:13;29.83;;;21.10;;
61525;SDS011;47394;41.366;-8.738;2022-09-01T07:12:20;36.85;;;21.98;;
61525;SDS011;47394;41.366;-8.738;2022-09-01T07:14:23;28.58;;;20.13;;
61525;SDS011;47394;41.366;-8.738;2022-09-01T07:16:25;27.00;;;20.27;;
61525;SDS011;47394;41.366;-8.738;2022-09-01T07:18:26;31.00;;;22.83;;
61525;SDS011;47394;41.366;-8.738;2022-09-01T07:20:30;31.15;;;21.08;;
61525;SDS011;47394;41.366;-8.738;2022-09-01T07:22:32;30.23;;;20.25;;
61525;SDS011;47394;41.366;-8.738;2022-09-01T07:24:33;28.25;;;18.58;;
61525;SDS011;47394;41.366;-8.738;2022-09-01T07:27:10;29.88;;;20.60;;
61525;SDS011;47394;41.366;-8.738;2022-09-01T07:29:12;33.05;;;19.30;;
61525;SDS011;47394;41.366;-8.738;2022-09-01T07:31:16;22.58;;;18.20;;
61525;SDS011;47394;41.366;-8.738;2022-09-01T07:33:22;26.40;;;18.33;;
61525;SDS011;47394;41.366;-8.738;2022-09-01T07:35:26;26.35;;;19.00;;
61525;SDS011;47394;41.366;-8.738;2022-09-01T07:37:26;24.90;;;17.45;;
61525;SDS011;47394;41.366;-8.738;2022-09-01T07:39:27;25.20;;;17.67;;
61525;SDS011;47394;41.366;-8.738;2022-09-01T07:41:49;20.83;;;15.45;;
61525;SDS011;47394;41.366;-8.738;2022-09-01T07:44:09;29.23;;;16.75;;
61525;SDS011;47394;41.366;-8.738;2022-09-01T07:46:43;23.33;;;17.90;;
61525;SDS011;47394;41.366;-8.738;2022-09-01T07:48:52;23.17;;;16.13;;
61525;SDS011;47394;41.366;-8.738;2022-09-01T07:50:55;27.30;;;17.52;;
61525;SDS011;47394;41.366;-8.738;2022-09-01T07:52:57;23.48;;;17.00;;
61525;SDS011;47394;41.366;-8.738;2022-09-01T07:54:59;21.30;;;16.55;;
61525;SDS011;47394;41.366;-8.738;2022-09-01T07:57:00;25.00;;;18.45;;
61525;SDS011;47394;41.366;-8.738;2022-09-01T07:59:05;24.73;;;17.67;;
61525;SDS011;47394;41.366;-8.738;2022-09-01T08:01:10;29.88;;;17.73;;
61525;SDS011;47394;41.366;-8.738;2022-09-01T08:03:15;28.83;;;19.58;;
61525;SDS011;47394;41.366;-8.738;2022-09-01T08:05:18;22.48;;;18.27;;
61525;SDS011;47394;41.366;-8.738;2022-09-01T08:07:26;21.08;;;18.38;;
61525;SDS011;47394;41.366;-8.738;2022-09-01T08:09:26;27.73;;;21.20;;
61525;SDS011;47394;41.366;-8.738;2022-09-01T08:11:28;29.67;;;19.27;;
61525;SDS011;47394;41.366;-8.738;2022-09-01T08:13:33;20.65;;;16.58;;
61525;SDS011;47394;41.366;-8.738;2022-09-01T08:15:38;20.88;;;17.27;;
61525;SDS011;47394;41.366;-8.738;2022-09-01T08:17:40;30.10;;;17.20;;
61525;SDS011;47394;41.366;-8.738;2022-09-01T08:19:44;24.55;;;16.77;;
61525;SDS011;47394;41.366;-8.738;2022-09-01T08:21:53;34.47;;;17.25;;
61525;SDS011;47394;41.366;-8.738;2022-09-01T08:24:01;24.33;;;17.33;;
61525;SDS011;47394;41.366;-8.738;2022-09-01T08:26:06;20.15;;;15.70;;
61525;SDS011;47394;41.366;-8.738;2022-09-01T08:28:08;24.50;;;17.35;;
61525;SDS011;47394;41.366;-8.738;2022-09-01T08:30:11;21.58;;;15.95;;
61525;SDS011;47394;41.366;-8.738;2022-09-01T08:32:13;21.05;;;14.20;;
61525;SDS011;47394;41.366;-8.738;2022-09-01T08:34:13;19.67;;;16.70;;
61525;SDS011;47394;41.366;-8.738;2022-09-01T08:36:16;22.05;;;16.67;;
61525;SDS011;47394;41.366;-8.738;2022-09-01T08:38:18;25.15;;;14.98;;
61525;SDS011;47394;41.366;-8.738;2022-09-01T08:40:19;18.10;;;14.75;;
61525;SDS011;47394;41.366;-8.738;2022-09-01T08:44:58;14.57;;;11.93;;
61525;SDS011;47394;41.366;-8.738;2022-09-01T08:47:14;17.95;;;11.50;;
61525;SDS011;47394;41.366;-8.738;2022-09-01T08:49:17;20.88;;;13.07;;
61525;SDS011;47394;41.366;-8.738;2022-09-01T08:52:01;14.15;;;10.73;;
61525;SDS011;47394;41.366;-8.738;2022-09-01T08:56:58;20.80;;;11.65;;
61525;SDS011;47394;41.366;-8.738;2022-09-01T08:59:21;16.83;;;10.38;;
61525;SDS011;47394;41.366;-8.738;2022-09-01T09:02:00;13.35;;;9.52;;
61525;SDS011;47394;41.366;-8.738;2022-09-01T09:04:08;11.55;;;9.18;;
61525;SDS011;47394;41.366;-8.738;2022-09-01T09:09:07;12.70;;;8.77;;
61525;SDS011;47394;41.366;-8.738;2022-09-01T09:13:36;15.25;;;8.95;;
61525;SDS011;47394;41.366;-8.738;2022-09-01T09:16:01;11.38;;;7.63;;
61525;SDS011;47394;41.366;-8.738;2022-09-01T09:20:22;9.07;;;7.05;;
61525;SDS011;47394;41.366;-8.738;2022-09-01T09:22:23;11.63;;;7.70;;
61525;SDS011;47394;41.366;-8.738;2022-09-01T09:24:35;13.88;;;6.97;;
61525;SDS011;47394;41.366;-8.738;2022-09-01T09:26:56;9.10;;;8.00;;
61525;SDS011;47394;41.366;-8.738;2022-09-01T09:28:58;10.02;;;8.60;;
61525;SDS011;47394;41.366;-8.738;2022-09-01T09:33:48;12.90;;;6.07;;
61525;SDS011;47394;41.366;-8.738;2022-09-01T09:35:48;9.82;;;5.45;;
61525;SDS011;47394;41.366;-8.738;2022-09-01T09:37:49;8.88;;;6.68;;
61525;SDS011;47394;41.366;-8.738;2022-09-01T09:40:10;11.85;;;7.05;;
61525;SDS011;47394;41.366;-8.738;2022-09-01T09:42:16;10.70;;;6.07;;
61525;SDS011;47394;41.366;-8.738;2022-09-01T09:48:38;12.15;;;7.10;;
61525;SDS011;47394;41.366;-8.738;2022-09-01T09:50:40;10.02;;;7.60;;
61525;SDS011;47394;41.366;-8.738;2022-09-01T09:52:42;11.55;;;7.30;;
61525;SDS011;47394;41.366;-8.738;2022-09-01T09:55:03;13.27;;;6.45;;
61525;SDS011;47394;41.366;-8.738;2022-09-01T09:57:16;8.48;;;5.60;;
61525;SDS011;47394;41.366;-8.738;2022-09-01T09:59:19;15.45;;;6.28;;
61525;SDS011;47394;41.366;-8.738;2022-09-01T10:01:28;10.63;;;5.70;;
61525;SDS011;47394;41.366;-8.738;2022-09-01T10:03:49;4.90;;;3.58;;
61525;SDS011;47394;41.366;-8.738;2022-09-01T10:05:52;10.88;;;4.43;;
61525;SDS011;47394;41.366;-8.738;2022-09-01T10:07:53;11.98;;;5.10;;
61525;SDS011;47394;41.366;-8.738;2022-09-01T10:09:57;10.18;;;5.75;;
61525;SDS011;47394;41.366;-8.738;2022-09-01T10:11:59;9.85;;;5.63;;
61525;SDS011;47394;41.366;-8.738;2022-09-01T10:14:03;11.45;;;6.18;;
61525;SDS011;47394;41.366;-8.738;2022-09-01T10:16:18;7.45;;;5.90;;
61525;SDS011;47394;41.366;-8.738;2022-09-01T10:18:29;15.90;;;8.05;;
61525;SDS011;47394;41.366;-8.738;2022-09-01T10:20:34;12.55;;;7.88;;
61525;SDS011;47394;41.366;-8.738;2022-09-01T10:22:37;11.48;;;7.50;;
61525;SDS011;47394;41.366;-8.738;2022-09-01T10:24:39;11.98;;;6.78;;
61525;SDS011;47394;41.366;-8.738;2022-09-01T10:26:39;9.63;;;7.05;;
61525;SDS011;47394;41.366;-8.738;2022-09-01T10:31:13;10.07;;;6.57;;
61525;SDS011;47394;41.366;-8.738;2022-09-01T10:33:15;10.30;;;7.13;;
61525;SDS011;47394;41.366;-8.738;2022-09-01T10:35:18;10.40;;;6.28;;
61525;SDS011;47394;41.366;-8.738;2022-09-01T10:37:28;7.87;;;3.30;;
61525;SDS011;47394;41.366;-8.738;2022-09-01T10:39:31;4.95;;;3.45;;
61525;SDS011;47394;41.366;-8.738;2022-09-01T10:43:42;5.88;;;3.20;;
61525;SDS011;47394;41.366;-8.738;2022-09-01T10:45:44;7.53;;;3.17;;
61525;SDS011;47394;41.366;-8.738;2022-09-01T10:47:44;2.97;;;1.88;;
61525;SDS011;47394;41.366;-8.738;2022-09-01T10:51:46;4.25;;;2.13;;
61525;SDS011;47394;41.366;-8.738;2022-09-01T10:53:51;5.07;;;1.92;;
61525;SDS011;47394;41.366;-8.738;2022-09-01T10:56:04;2.67;;;1.50;;
61525;SDS011;47394;41.366;-8.738;2022-09-01T10:58:24;6.15;;;1.30;;
61525;SDS011;47394;41.366;-8.738;2022-09-01T11:02:35;5.20;;;2.83;;
61525;SDS011;47394;41.366;-8.738;2022-09-01T11:06:42;8.70;;;3.42;;
61525;SDS011;47394;41.366;-8.738;2022-09-01T11:08:56;1.90;;;1.70;;
61525;SDS011;47394;41.366;-8.738;2022-09-01T11:13:45;5.03;;;1.88;;
61525;SDS011;47394;41.366;-8.738;2022-09-01T11:15:48;4.03;;;2.30;;
61525;SDS011;47394;41.366;-8.738;2022-09-01T11:26:46;7.25;;;3.42;;
61525;SDS011;47394;41.366;-8.738;2022-09-01T11:28:47;4.28;;;2.83;;
61525;SDS011;47394;41.366;-8.738;2022-09-01T11:35:19;2.60;;;2.30;;
61525;SDS011;47394;41.366;-8.738;2022-09-01T11:37:22;2.28;;;1.85;;
61525;SDS011;47394;41.366;-8.738;2022-09-01T11:39:57;1.08;;;1.00;;
61525;SDS011;47394;41.366;-8.738;2022-09-01T11:46:43;2.70;;;2.28;;
61525;SDS011;47394;41.366;-8.738;2022-09-01T11:48:48;3.42;;;2.75;;
61525;SDS011;47394;41.366;-8.738;2022-09-01T11:50:55;4.10;;;3.00;;
61525;SDS011;47394;41.366;-8.738;2022-09-01T11:55:07;3.35;;;2.17;;
61525;SDS011;47394;41.366;-8.738;2022-09-01T11:59:34;5.22;;;2.67;;
61525;SDS011;47394;41.366;-8.738;2022-09-01T12:01:37;3.47;;;2.85;;
61525;SDS011;47394;41.366;-8.738;2022-09-01T12:03:39;4.25;;;2.67;;
61525;SDS011;47394;41.366;-8.738;2022-09-01T12:05:40;5.18;;;2.67;;
61525;SDS011;47394;41.366;-8.738;2022-09-01T12:07:44;3.00;;;2.25;;
61525;SDS011;47394;41.366;-8.738;2022-09-01T12:09:46;3.58;;;2.08;;
61525;SDS011;47394;41.366;-8.738;2022-09-01T12:11:47;2.08;;;1.20;;
61525;SDS011;47394;41.366;-8.738;2022-09-01T12:13:59;1.65;;;1.38;;
61525;SDS011;47394;41.366;-8.738;2022-09-01T12:16:08;2.10;;;1.30;;
61525;SDS011;47394;41.366;-8.738;2022-09-01T12:20:28;5.00;;;2.30;;
61525;SDS011;47394;41.366;-8.738;2022-09-01T12:22:31;3.08;;;2.40;;
61525;SDS011;47394;41.366;-8.738;2022-09-01T12:24:35;2.38;;;1.90;;
61525;SDS011;47394;41.366;-8.738;2022-09-01T12:26:36;4.70;;;3.03;;
61525;SDS011;47394;41.366;-8.738;2022-09-01T12:28:38;2.83;;;2.50;;
61525;SDS011;47394;41.366;-8.738;2022-09-01T12:30:41;7.13;;;3.15;;
61525;SDS011;47394;41.366;-8.738;2022-09-01T12:32:42;5.53;;;3.60;;
61525;SDS011;47394;41.366;-8.738;2022-09-01T12:34:57;3.08;;;2.10;;
61525;SDS011;47394;41.366;-8.738;2022-09-01T12:39:19;2.45;;;1.73;;
61525;SDS011;47394;41.366;-8.738;2022-09-01T12:41:37;2.28;;;1.20;;
61525;SDS011;47394;41.366;-8.738;2022-09-01T12:43:39;3.38;;;1.40;;
61525;SDS011;47394;41.366;-8.738;2022-09-01T12:45:42;1.35;;;1.25;;
61525;SDS011;47394;41.366;-8.738;2022-09-01T12:47:46;2.10;;;1.38;;
61525;SDS011;47394;41.366;-8.738;2022-09-01T12:49:48;3.60;;;1.70;;
61525;SDS011;47394;41.366;-8.738;2022-09-01T12:51:48;2.97;;;1.70;;
61525;SDS011;47394;41.366;-8.738;2022-09-01T12:53:54;5.78;;;1.45;;
61525;SDS011;47394;41.366;-8.738;2022-09-01T12:56:15;1.55;;;1.20;;
61525;SDS011;47394;41.366;-8.738;2022-09-01T12:58:19;3.00;;;1.25;;
61525;SDS011;47394;41.366;-8.738;2022-09-01T13:00:26;5.75;;;1.55;;
61525;SDS011;47394;41.366;-8.738;2022-09-01T13:02:33;2.13;;;1.48;;
61525;SDS011;47394;41.366;-8.738;2022-09-01T13:04:36;1.92;;;1.38;;
61525;SDS011;47394;41.366;-8.738;2022-09-01T13:06:36;3.75;;;1.80;;
61525;SDS011;47394;41.366;-8.738;2022-09-01T13:08:38;4.00;;;2.22;;
61525;SDS011;47394;41.366;-8.738;2022-09-01T13:10:52;1.27;;;1.10;;
61525;SDS011;47394;41.366;-8.738;2022-09-01T13:13:14;1.55;;;1.13;;
61525;SDS011;47394;41.366;-8.738;2022-09-01T13:15:17;1.02;;;0.90;;